sensor_id;sensor_type;location;lat;lon;timestamp;temperature;humidity
3202;DHT22;34843;48.744;8.958;2023-03-01T00:00:39;-4.10;99.90
3202;DHT22;34843;48.744;8.958;2023-03-01T00:03:04;-4.10;99.90
3202;DHT22;34843;48.744;8.958;2023-03-01T00:05:30;-4.10;99.90
3202;DHT22;34843;48.744;8.958;2023-03-01T00:07:55;-4.20;99.90
3202;DHT22;34843;48.744;8.958;2023-03-01T00:10:21;-4.20;99.90
3202;DHT22;34843;48.744;8.958;2023-03-01T00:12:46;-4.20;99.90
3202;DHT22;34843;48.744;8.958;2023-03-01T00:15:12;-4.20;99.90
3202;DHT22;34843;48.744;8.958;2023-03-01T00:17:37;-3.50;99.90
3202;DHT22;34843;48.744;8.958;2023-03-01T00:20:04;-4.20;99.90
3202;DHT22;34843;48.744;8.958;2023-03-01T00:22:33;-4.20;99.90
3202;DHT22;34843;48.744;8.958;2023-03-01T00:24:58;-4.20;99.90
3202;DHT22;34843;48.744;8.958;2023-03-01T00:27:24;-4.20;99.90
3202;DHT22;34843;48.744;8.958;2023-03-01T00:29:49;-4.20;99.90
3202;DHT22;34843;48.744;8.958;2023-03-01T00:32:15;-4.20;99.90
3202;DHT22;34843;48.744;8.958;2023-03-01T00:34:40;-4.20;99.90
3202;DHT22;34843;48.744;8.958;2023-03-01T00:37:06;-4.20;99.90
3202;DHT22;34843;48.744;8.958;2023-03-01T00:39:32;-4.30;99.90
3202;DHT22;34843;48.744;8.958;2023-03-01T00:41:58;-4.20;99.90
3202;DHT22;34843;48.744;8.958;2023-03-01T00:44:24;-4.30;99.90
3202;DHT22;34843;48.744;8.958;2023-03-01T00:46:49;-4.30;99.90
3202;DHT22;34843;48.744;8.958;2023-03-01T00:49:15;-4.30;99.90
3202;DHT22;34843;48.744;8.958;2023-03-01T00:51:40;-4.30;99.90
3202;DHT22;34843;48.744;8.958;2023-03-01T00:54:09;-4.40;99.90
3202;DHT22;34843;48.744;8.958;2023-03-01T00:56:35;-4.40;99.90
3202;DHT22;34843;48.744;8.958;2023-03-01T00:59:01;-4.50;99.90
3202;DHT22;34843;48.744;8.958;2023-03-01T01:01:29;-4.40;99.90
3202;DHT22;34843;48.744;8.958;2023-03-01T01:04:13;-4.10;99.90
3202;DHT22;34843;48.744;8.958;2023-03-01T01:09:09;-4.50;99.90
3202;DHT22;34843;48.744;8.958;2023-03-01T01:11:35;-4.50;99.90
3202;DHT22;34843;48.744;8.958;2023-03-01T01:14:03;-4.60;99.90
3202;DHT22;34843;48.744;8.958;2023-03-01T01:16:29;-4.60;99.90
3202;DHT22;34843;48.744;8.958;2023-03-01T01:18:56;-4.80;99.90
3202;DHT22;34843;48.744;8.958;2023-03-01T01:21:23;-4.70;99.90
3202;DHT22;34843;48.744;8.958;2023-03-01T01:23:51;-4.80;99.90
3202;DHT22;34843;48.744;8.958;2023-03-01T01:26:25;-4.80;99.90
3202;DHT22;34843;48.744;8.958;2023-03-01T01:28:51;-4.80;99.90
3202;DHT22;34843;48.744;8.958;2023-03-01T01:31:18;-4.80;99.90
3202;DHT22;34843;48.744;8.958;2023-03-01T01:33:44;-4.70;99.90
3202;DHT22;34843;48.744;8.958;2023-03-01T01:36:10;-4.80;99.90
3202;DHT22;34843;48.744;8.958;2023-03-01T01:38:37;-4.80;99.90
3202;DHT22;34843;48.744;8.958;2023-03-01T01:41:03;-4.80;99.90
3202;DHT22;34843;48.744;8.958;2023-03-01T01:43:32;-4.70;99.90
3202;DHT22;34843;48.744;8.958;2023-03-01T01:46:04;-4.80;99.90
3202;DHT22;34843;48.744;8.958;2023-03-01T01:51:40;-4.80;99.90
3202;DHT22;34843;48.744;8.958;2023-03-01T01:54:12;-4.80;99.90
3202;DHT22;34843;48.744;8.958;2023-03-01T01:56:42;-4.90;99.90
3202;DHT22;34843;48.744;8.958;2023-03-01T01:59:09;-4.80;99.90
3202;DHT22;34843;48.744;8.958;2023-03-01T02:01:34;-4.90;99.90
3202;DHT22;34843;48.744;8.958;2023-03-01T02:04:00;-4.80;99.90
3202;DHT22;34843;48.744;8.958;2023-03-01T02:06:49;-3.80;99.90
3202;DHT22;34843;48.744;8.958;2023-03-01T02:09:18;-4.80;99.90
3202;DHT22;34843;48.744;8.958;2023-03-01T02:11:44;-4.80;99.90
3202;DHT22;34843;48.744;8.958;2023-03-01T02:14:10;-4.80;99.90
3202;DHT22;34843;48.744;8.958;2023-03-01T02:16:36;-4.80;99.90
3202;DHT22;34843;48.744;8.958;2023-03-01T02:19:03;-4.80;99.90
3202;DHT22;34843;48.744;8.958;2023-03-01T02:21:34;-4.70;99.90
3202;DHT22;34843;48.744;8.958;2023-03-01T02:24:20;-4.50;99.90
3202;DHT22;34843;48.744;8.958;2023-03-01T02:26:52;-4.50;99.90
3202;DHT22;34843;48.744;8.958;2023-03-01T02:29:21;-4.00;99.90
3202;DHT22;34843;48.744;8.958;2023-03-01T02:31:47;-4.30;99.90
3202;DHT22;34843;48.744;8.958;2023-03-01T02:34:18;-4.00;99.90
3202;DHT22;34843;48.744;8.958;2023-03-01T02:36:51;-4.00;99.90
3202;DHT22;34843;48.744;8.958;2023-03-01T02:39:23;-3.90;99.90
3202;DHT22;34843;48.744;8.958;2023-03-01T02:41:53;-3.80;99.90
3202;DHT22;34843;48.744;8.958;2023-03-01T02:44:19;-3.60;99.90
3202;DHT22;34843;48.744;8.958;2023-03-01T02:46:53;-3.60;99.90
3202;DHT22;34843;48.744;8.958;2023-03-01T02:49:24;-3.60;99.90
3202;DHT22;34843;48.744;8.958;2023-03-01T02:54:48;-3.20;99.90
3202;DHT22;34843;48.744;8.958;2023-03-01T02:57:17;-3.20;99.90
3202;DHT22;34843;48.744;8.958;2023-03-01T02:59:43;-3.00;99.90
3202;DHT22;34843;48.744;8.958;2023-03-01T03:02:21;-3.10;99.90
3202;DHT22;34843;48.744;8.958;2023-03-01T03:05:02;-2.80;99.90
3202;DHT22;34843;48.744;8.958;2023-03-01T03:07:28;-2.80;99.90
3202;DHT22;34843;48.744;8.958;2023-03-01T03:09:53;-2.80;99.90
3202;DHT22;34843;48.744;8.958;2023-03-01T03:12:19;-2.70;99.90
3202;DHT22;34843;48.744;8.958;2023-03-01T03:14:44;-2.60;99.90
3202;DHT22;34843;48.744;8.958;2023-03-01T03:17:10;-2.70;99.90
3202;DHT22;34843;48.744;8.958;2023-03-01T03:19:35;-2.60;99.90
3202;DHT22;34843;48.744;8.958;2023-03-01T03:22:01;-2.50;99.90
3202;DHT22;34843;48.744;8.958;2023-03-01T03:24:27;-2.40;99.90
3202;DHT22;34843;48.744;8.958;2023-03-01T03:27:06;-2.30;99.90
3202;DHT22;34843;48.744;8.958;2023-03-01T03:29:32;-2.40;99.90
3202;DHT22;34843;48.744;8.958;2023-03-01T03:31:57;-2.30;99.90
3202;DHT22;34843;48.744;8.958;2023-03-01T03:34:23;-2.20;99.90
3202;DHT22;34843;48.744;8.958;2023-03-01T03:36:53;-2.20;99.90
3202;DHT22;34843;48.744;8.958;2023-03-01T03:39:25;-2.00;99.90
3202;DHT22;34843;48.744;8.958;2023-03-01T03:41:52;-2.00;99.90
3202;DHT22;34843;48.744;8.958;2023-03-01T03:44:18;-1.90;99.90
3202;DHT22;34843;48.744;8.958;2023-03-01T03:46:43;-1.90;99.90
3202;DHT22;34843;48.744;8.958;2023-03-01T03:49:09;-1.80;99.90
3202;DHT22;34843;48.744;8.958;2023-03-01T03:51:34;-1.70;99.90
3202;DHT22;34843;48.744;8.958;2023-03-01T03:54:00;-1.60;99.90
3202;DHT22;34843;48.744;8.958;2023-03-01T03:56:25;-1.60;99.90
3202;DHT22;34843;48.744;8.958;2023-03-01T03:58:51;-1.60;99.90
3202;DHT22;34843;48.744;8.958;2023-03-01T04:01:17;-1.60;99.90
3202;DHT22;34843;48.744;8.958;2023-03-01T04:03:43;-1.50;99.90
3202;DHT22;34843;48.744;8.958;2023-03-01T04:06:12;-1.60;99.90
3202;DHT22;34843;48.744;8.958;2023-03-01T04:08:38;-1.60;99.90
3202;DHT22;34843;48.744;8.958;2023-03-01T04:11:05;-1.50;99.90
3202;DHT22;34843;48.744;8.958;2023-03-01T04:13:50;-1.60;99.90
3202;DHT22;34843;48.744;8.958;2023-03-01T04:16:16;-1.60;99.90
3202;DHT22;34843;48.744;8.958;2023-03-01T04:18:42;-1.30;99.90
3202;DHT22;34843;48.744;8.958;2023-03-01T04:21:07;-1.50;99.90
3202;DHT22;34843;48.744;8.958;2023-03-01T04:23:33;-1.50;99.90
3202;DHT22;34843;48.744;8.958;2023-03-01T04:25:59;-1.40;99.90
3202;DHT22;34843;48.744;8.958;2023-03-01T04:28:31;-1.40;99.90
3202;DHT22;34843;48.744;8.958;2023-03-01T04:31:07;-1.40;99.90
3202;DHT22;34843;48.744;8.958;2023-03-01T04:33:44;-1.60;99.90
3202;DHT22;34843;48.744;8.958;2023-03-01T04:36:11;-1.50;99.90
3202;DHT22;34843;48.744;8.958;2023-03-01T04:38:38;-1.50;99.90
3202;DHT22;34843;48.744;8.958;2023-03-01T04:41:06;-1.60;99.90
3202;DHT22;34843;48.744;8.958;2023-03-01T04:43:32;-1.50;99.90
3202;DHT22;34843;48.744;8.958;2023-03-01T04:46:02;-1.50;99.90
3202;DHT22;34843;48.744;8.958;2023-03-01T04:48:28;-1.50;99.90
3202;DHT22;34843;48.744;8.958;2023-03-01T04:50:54;-1.50;99.90
3202;DHT22;34843;48.744;8.958;2023-03-01T04:53:19;-1.50;99.90
3202;DHT22;34843;48.744;8.958;2023-03-01T04:55:45;-1.50;99.90
3202;DHT22;34843;48.744;8.958;2023-03-01T04:58:11;-1.40;99.90
3202;DHT22;34843;48.744;8.958;2023-03-01T05:00:37;-1.40;99.90
3202;DHT22;34843;48.744;8.958;2023-03-01T05:03:02;-1.30;99.90
3202;DHT22;34843;48.744;8.958;2023-03-01T05:07:57;-1.30;99.90
3202;DHT22;34843;48.744;8.958;2023-03-01T05:10:23;-1.30;99.90
3202;DHT22;34843;48.744;8.958;2023-03-01T05:12:49;-1.20;99.90
3202;DHT22;34843;48.744;8.958;2023-03-01T05:15:15;-1.20;99.90
3202;DHT22;34843;48.744;8.958;2023-03-01T05:17:40;-1.20;99.90
3202;DHT22;34843;48.744;8.958;2023-03-01T05:20:06;-1.20;99.90
3202;DHT22;34843;48.744;8.958;2023-03-01T05:22:35;-1.20;99.90
3202;DHT22;34843;48.744;8.958;2023-03-01T05:27:27;-1.20;99.90
3202;DHT22;34843;48.744;8.958;2023-03-01T05:29:52;-1.20;99.90
3202;DHT22;34843;48.744;8.958;2023-03-01T05:32:18;-1.20;99.90
3202;DHT22;34843;48.744;8.958;2023-03-01T05:34:43;-1.20;99.90
3202;DHT22;34843;48.744;8.958;2023-03-01T05:37:12;-1.30;99.90
3202;DHT22;34843;48.744;8.958;2023-03-01T05:39:38;-1.70;99.90
3202;DHT22;34843;48.744;8.958;2023-03-01T05:42:04;-1.20;99.90
3202;DHT22;34843;48.744;8.958;2023-03-01T05:44:30;-1.20;99.90
3202;DHT22;34843;48.744;8.958;2023-03-01T05:46:55;-1.10;99.90
3202;DHT22;34843;48.744;8.958;2023-03-01T05:49:22;-1.10;99.90
3202;DHT22;34843;48.744;8.958;2023-03-01T05:51:52;-1.20;99.90
3202;DHT22;34843;48.744;8.958;2023-03-01T05:54:19;-1.10;99.90
3202;DHT22;34843;48.744;8.958;2023-03-01T05:56:44;-1.10;99.90
3202;DHT22;34843;48.744;8.958;2023-03-01T05:59:10;-1.00;99.90
3202;DHT22;34843;48.744;8.958;2023-03-01T06:01:36;-1.00;99.90
3202;DHT22;34843;48.744;8.958;2023-03-01T06:06:34;-1.00;99.90
3202;DHT22;34843;48.744;8.958;2023-03-01T06:09:00;-1.20;99.90
3202;DHT22;34843;48.744;8.958;2023-03-01T06:11:25;-1.00;99.90
3202;DHT22;34843;48.744;8.958;2023-03-01T06:13:51;-1.00;99.90
3202;DHT22;34843;48.744;8.958;2023-03-01T06:16:16;-1.10;99.90
3202;DHT22;34843;48.744;8.958;2023-03-01T06:18:42;-0.80;99.90
3202;DHT22;34843;48.744;8.958;2023-03-01T06:21:08;-0.20;99.90
3202;DHT22;34843;48.744;8.958;2023-03-01T06:23:34;-1.30;99.90
3202;DHT22;34843;48.744;8.958;2023-03-01T06:26:00;-1.10;99.90
3202;DHT22;34843;48.744;8.958;2023-03-01T06:28:26;-1.00;99.90
3202;DHT22;34843;48.744;8.958;2023-03-01T06:30:52;-0.90;99.90
3202;DHT22;34843;48.744;8.958;2023-03-01T06:33:18;-0.90;99.90
3202;DHT22;34843;48.744;8.958;2023-03-01T06:35:46;-0.90;99.90
3202;DHT22;34843;48.744;8.958;2023-03-01T06:38:12;-0.90;99.90
3202;DHT22;34843;48.744;8.958;2023-03-01T06:40:40;-0.90;99.90
3202;DHT22;34843;48.744;8.958;2023-03-01T06:45:33;-1.00;99.90
3202;DHT22;34843;48.744;8.958;2023-03-01T06:48:06;-1.00;99.90
3202;DHT22;34843;48.744;8.958;2023-03-01T06:50:32;-1.00;99.90
3202;DHT22;34843;48.744;8.958;2023-03-01T06:52:58;-1.30;99.90
3202;DHT22;34843;48.744;8.958;2023-03-01T06:55:24;-0.90;99.90
3202;DHT22;34843;48.744;8.958;2023-03-01T06:57:57;-1.00;99.90
3202;DHT22;34843;48.744;8.958;2023-03-01T07:00:23;-0.70;99.90
3202;DHT22;34843;48.744;8.958;2023-03-01T07:02:49;-0.60;99.90
3202;DHT22;34843;48.744;8.958;2023-03-01T07:05:15;-0.50;99.90
3202;DHT22;34843;48.744;8.958;2023-03-01T07:07:40;-0.50;99.90
3202;DHT22;34843;48.744;8.958;2023-03-01T07:10:06;-0.50;99.90
3202;DHT22;34843;48.744;8.958;2023-03-01T07:12:32;-0.60;99.90
3202;DHT22;34843;48.744;8.958;2023-03-01T07:14:58;-0.40;99.90
3202;DHT22;34843;48.744;8.958;2023-03-01T07:17:23;-0.40;99.90
3202;DHT22;34843;48.744;8.958;2023-03-01T07:19:49;0.80;99.90
3202;DHT22;34843;48.744;8.958;2023-03-01T07:22:14;1.20;99.90
3202;DHT22;34843;48.744;8.958;2023-03-01T07:24:41;2.30;99.90
3202;DHT22;34843;48.744;8.958;2023-03-01T07:27:07;3.60;99.90
3202;DHT22;34843;48.744;8.958;2023-03-01T07:29:32;2.40;99.90
3202;DHT22;34843;48.744;8.958;2023-03-01T07:31:58;2.40;99.90
3202;DHT22;34843;48.744;8.958;2023-03-01T07:34:23;3.20;99.90
3202;DHT22;34843;48.744;8.958;2023-03-01T07:36:49;3.30;99.90
3202;DHT22;34843;48.744;8.958;2023-03-01T07:39:15;3.60;99.90
3202;DHT22;34843;48.744;8.958;2023-03-01T07:41:40;4.20;99.90
3202;DHT22;34843;48.744;8.958;2023-03-01T07:44:06;5.30;99.90
3202;DHT22;34843;48.744;8.958;2023-03-01T07:46:31;5.30;99.90
3202;DHT22;34843;48.744;8.958;2023-03-01T07:48:57;5.50;99.90
3202;DHT22;34843;48.744;8.958;2023-03-01T07:51:23;6.00;99.90
3202;DHT22;34843;48.744;8.958;2023-03-01T07:53:49;6.20;99.90
3202;DHT22;34843;48.744;8.958;2023-03-01T07:56:15;5.90;99.90
3202;DHT22;34843;48.744;8.958;2023-03-01T07:58:43;5.50;99.90
3202;DHT22;34843;48.744;8.958;2023-03-01T08:01:15;6.00;99.90
3202;DHT22;34843;48.744;8.958;2023-03-01T08:03:40;6.20;99.90
3202;DHT22;34843;48.744;8.958;2023-03-01T08:06:08;6.60;99.90
3202;DHT22;34843;48.744;8.958;2023-03-01T08:08:35;6.80;99.90
3202;DHT22;34843;48.744;8.958;2023-03-01T08:11:02;6.20;99.90
3202;DHT22;34843;48.744;8.958;2023-03-01T08:13:29;5.40;99.90
3202;DHT22;34843;48.744;8.958;2023-03-01T08:16:00;4.10;99.90
3202;DHT22;34843;48.744;8.958;2023-03-01T08:18:25;3.60;99.90
3202;DHT22;34843;48.744;8.958;2023-03-01T08:20:51;3.00;99.90
3202;DHT22;34843;48.744;8.958;2023-03-01T08:23:16;2.20;99.90
3202;DHT22;34843;48.744;8.958;2023-03-01T08:25:43;-1.00;99.90
3202;DHT22;34843;48.744;8.958;2023-03-01T08:28:08;1.20;99.90
3202;DHT22;34843;48.744;8.958;2023-03-01T08:30:34;1.50;99.90
3202;DHT22;34843;48.744;8.958;2023-03-01T08:32:59;0.80;99.90
3202;DHT22;34843;48.744;8.958;2023-03-01T08:35:25;0.70;99.90
3202;DHT22;34843;48.744;8.958;2023-03-01T08:37:51;0.60;99.90
3202;DHT22;34843;48.744;8.958;2023-03-01T08:40:16;0.30;99.90
3202;DHT22;34843;48.744;8.958;2023-03-01T08:42:42;0.60;99.90
3202;DHT22;34843;48.744;8.958;2023-03-01T08:45:11;0.50;99.90
3202;DHT22;34843;48.744;8.958;2023-03-01T08:47:37;0.40;99.90
3202;DHT22;34843;48.744;8.958;2023-03-01T08:50:03;0.80;99.90
3202;DHT22;34843;48.744;8.958;2023-03-01T08:52:29;0.50;99.90
3202;DHT22;34843;48.744;8.958;2023-03-01T08:54:55;0.50;99.90
3202;DHT22;34843;48.744;8.958;2023-03-01T08:57:21;0.30;99.90
3202;DHT22;34843;48.744;8.958;2023-03-01T08:59:46;1.60;99.90
3202;DHT22;34843;48.744;8.958;2023-03-01T09:02:15;0.50;99.90
3202;DHT22;34843;48.744;8.958;2023-03-01T09:04:41;1.00;99.90
3202;DHT22;34843;48.744;8.958;2023-03-01T09:07:07;0.80;99.90
3202;DHT22;34843;48.744;8.958;2023-03-01T09:09:33;0.90;99.90
3202;DHT22;34843;48.744;8.958;2023-03-01T09:11:58;0.90;99.90
3202;DHT22;34843;48.744;8.958;2023-03-01T09:14:24;1.30;99.90
3202;DHT22;34843;48.744;8.958;2023-03-01T09:16:49;2.00;99.90
3202;DHT22;34843;48.744;8.958;2023-03-01T09:19:15;1.30;99.90
3202;DHT22;34843;48.744;8.958;2023-03-01T09:21:41;1.80;99.90
3202;DHT22;34843;48.744;8.958;2023-03-01T09:24:15;2.00;99.90
3202;DHT22;34843;48.744;8.958;2023-03-01T09:26:41;2.80;99.90
3202;DHT22;34843;48.744;8.958;2023-03-01T09:29:06;2.70;99.90
3202;DHT22;34843;48.744;8.958;2023-03-01T09:31:34;2.90;99.90
3202;DHT22;34843;48.744;8.958;2023-03-01T09:34:00;2.70;99.90
3202;DHT22;34843;48.744;8.958;2023-03-01T09:36:25;2.10;99.90
3202;DHT22;34843;48.744;8.958;2023-03-01T09:38:51;3.00;99.90
3202;DHT22;34843;48.744;8.958;2023-03-01T09:41:36;2.20;99.90
3202;DHT22;34843;48.744;8.958;2023-03-01T09:44:12;2.40;99.90
3202;DHT22;34843;48.744;8.958;2023-03-01T09:46:43;3.60;99.90
3202;DHT22;34843;48.744;8.958;2023-03-01T09:49:33;2.30;99.90
3202;DHT22;34843;48.744;8.958;2023-03-01T09:52:09;2.50;99.90
3202;DHT22;34843;48.744;8.958;2023-03-01T09:54:37;2.60;99.90
3202;DHT22;34843;48.744;8.958;2023-03-01T09:57:11;3.40;99.90
3202;DHT22;34843;48.744;8.958;2023-03-01T09:59:56;2.60;99.90
3202;DHT22;34843;48.744;8.958;2023-03-01T10:02:29;2.80;99.90
3202;DHT22;34843;48.744;8.958;2023-03-01T10:05:27;2.80;99.90
3202;DHT22;34843;48.744;8.958;2023-03-01T10:08:24;2.80;99.90
3202;DHT22;34843;48.744;8.958;2023-03-01T10:10:52;3.40;99.90
3202;DHT22;34843;48.744;8.958;2023-03-01T10:13:45;2.90;99.90
3202;DHT22;34843;48.744;8.958;2023-03-01T10:16:18;2.90;99.90
3202;DHT22;34843;48.744;8.958;2023-03-01T10:18:55;2.90;99.90
3202;DHT22;34843;48.744;8.958;2023-03-01T10:21:22;3.20;99.90
3202;DHT22;34843;48.744;8.958;2023-03-01T10:23:50;3.00;99.90
3202;DHT22;34843;48.744;8.958;2023-03-01T10:29:04;3.00;99.90
3202;DHT22;34843;48.744;8.958;2023-03-01T10:31:42;2.70;99.90
3202;DHT22;34843;48.744;8.958;2023-03-01T10:34:30;2.90;99.90
3202;DHT22;34843;48.744;8.958;2023-03-01T10:37:01;3.50;99.90
3202;DHT22;34843;48.744;8.958;2023-03-01T10:39:26;3.10;99.90
3202;DHT22;34843;48.744;8.958;2023-03-01T10:42:01;3.10;99.90
3202;DHT22;34843;48.744;8.958;2023-03-01T10:44:36;3.10;99.90
3202;DHT22;34843;48.744;8.958;2023-03-01T10:47:02;3.00;99.90
3202;DHT22;34843;48.744;8.958;2023-03-01T10:51:54;3.30;99.90
3202;DHT22;34843;48.744;8.958;2023-03-01T10:54:23;3.40;99.90
3202;DHT22;34843;48.744;8.958;2023-03-01T10:56:55;3.30;99.90
3202;DHT22;34843;48.744;8.958;2023-03-01T10:59:31;3.40;99.90
3202;DHT22;34843;48.744;8.958;2023-03-01T11:04:34;3.70;99.90
3202;DHT22;34843;48.744;8.958;2023-03-01T11:07:01;3.80;99.90
3202;DHT22;34843;48.744;8.958;2023-03-01T11:09:31;3.70;99.90
3202;DHT22;34843;48.744;8.958;2023-03-01T11:12:05;3.80;99.90
3202;DHT22;34843;48.744;8.958;2023-03-01T11:14:35;3.80;99.90
3202;DHT22;34843;48.744;8.958;2023-03-01T11:17:04;4.40;99.90
3202;DHT22;34843;48.744;8.958;2023-03-01T11:19:31;4.00;99.90
3202;DHT22;34843;48.744;8.958;2023-03-01T11:22:16;4.10;99.90
3202;DHT22;34843;48.744;8.958;2023-03-01T11:24:51;3.90;99.90
3202;DHT22;34843;48.744;8.958;2023-03-01T11:27:32;3.80;99.90
3202;DHT22;34843;48.744;8.958;2023-03-01T11:32:53;4.00;99.90
3202;DHT22;34843;48.744;8.958;2023-03-01T11:35:24;4.40;99.90
3202;DHT22;34843;48.744;8.958;2023-03-01T11:38:12;4.20;99.90
3202;DHT22;34843;48.744;8.958;2023-03-01T11:43:50;4.50;99.90
3202;DHT22;34843;48.744;8.958;2023-03-01T11:46:43;4.60;99.90
3202;DHT22;34843;48.744;8.958;2023-03-01T11:54:39;4.90;99.90
3202;DHT22;34843;48.744;8.958;2023-03-01T11:57:38;4.80;99.90
3202;DHT22;34843;48.744;8.958;2023-03-01T12:00:23;4.80;99.90
3202;DHT22;34843;48.744;8.958;2023-03-01T12:08:45;4.70;99.90
3202;DHT22;34843;48.744;8.958;2023-03-01T12:11:27;4.80;99.90
3202;DHT22;34843;48.744;8.958;2023-03-01T12:14:29;5.00;99.90
3202;DHT22;34843;48.744;8.958;2023-03-01T12:22:30;5.00;99.90
3202;DHT22;34843;48.744;8.958;2023-03-01T12:35:52;5.30;99.90
3202;DHT22;34843;48.744;8.958;2023-03-01T12:38:56;5.40;99.90
3202;DHT22;34843;48.744;8.958;2023-03-01T12:44:12;5.80;99.90
3202;DHT22;34843;48.744;8.958;2023-03-01T12:49:24;5.80;99.90
3202;DHT22;34843;48.744;8.958;2023-03-01T12:51:59;5.80;99.90
3202;DHT22;34843;48.744;8.958;2023-03-01T12:54:31;6.30;99.90
3202;DHT22;34843;48.744;8.958;2023-03-01T12:57:08;5.90;99.90
3202;DHT22;34843;48.744;8.958;2023-03-01T12:59:59;5.60;99.90
3202;DHT22;34843;48.744;8.958;2023-03-01T13:08:01;6.30;99.90
3202;DHT22;34843;48.744;8.958;2023-03-01T13:11:03;6.30;99.90
3202;DHT22;34843;48.744;8.958;2023-03-01T13:13:29;6.30;99.90
3202;DHT22;34843;48.744;8.958;2023-03-01T13:15:55;6.30;99.90
3202;DHT22;34843;48.744;8.958;2023-03-01T13:20:56;6.20;99.90
3202;DHT22;34843;48.744;8.958;2023-03-01T13:23:33;6.20;99.90
3202;DHT22;34843;48.744;8.958;2023-03-01T13:26:17;6.20;99.90
3202;DHT22;34843;48.744;8.958;2023-03-01T13:29:25;6.10;99.90
3202;DHT22;34843;48.744;8.958;2023-03-01T13:34:45;6.30;99.90
3202;DHT22;34843;48.744;8.958;2023-03-01T13:37:25;6.30;99.90
3202;DHT22;34843;48.744;8.958;2023-03-01T13:39:51;6.30;99.90
3202;DHT22;34843;48.744;8.958;2023-03-01T13:42:35;6.30;99.90
3202;DHT22;34843;48.744;8.958;2023-03-01T13:45:31;6.30;99.90
3202;DHT22;34843;48.744;8.958;2023-03-01T13:48:01;6.30;99.90
3202;DHT22;34843;48.744;8.958;2023-03-01T13:50:30;6.30;99.90
3202;DHT22;34843;48.744;8.958;2023-03-01T13:53:01;6.40;99.90
3202;DHT22;34843;48.744;8.958;2023-03-01T13:55:45;6.40;99.90
3202;DHT22;34843;48.744;8.958;2023-03-01T13:58:31;6.30;99.90
3202;DHT22;34843;48.744;8.958;2023-03-01T14:01:05;6.30;99.90
3202;DHT22;34843;48.744;8.958;2023-03-01T14:03:32;6.30;99.90
3202;DHT22;34843;48.744;8.958;2023-03-01T14:08:34;6.30;99.90
3202;DHT22;34843;48.744;8.958;2023-03-01T14:11:22;6.20;99.90
3202;DHT22;34843;48.744;8.958;2023-03-01T14:19:18;6.30;99.90
3202;DHT22;34843;48.744;8.958;2023-03-01T14:21:46;6.40;99.90
3202;DHT22;34843;48.744;8.958;2023-03-01T14:24:20;6.30;99.90
3202;DHT22;34843;48.744;8.958;2023-03-01T14:26:47;6.40;99.90
3202;DHT22;34843;48.744;8.958;2023-03-01T14:29:34;6.30;99.90
3202;DHT22;34843;48.744;8.958;2023-03-01T14:32:20;6.30;99.90
3202;DHT22;34843;48.744;8.958;2023-03-01T14:34:48;6.30;99.90
3202;DHT22;34843;48.744;8.958;2023-03-01T14:37:22;6.30;99.90
3202;DHT22;34843;48.744;8.958;2023-03-01T14:39:48;6.80;99.90
3202;DHT22;34843;48.744;8.958;2023-03-01T14:44:42;6.50;99.90
3202;DHT22;34843;48.744;8.958;2023-03-01T14:47:15;6.40;99.90
3202;DHT22;34843;48.744;8.958;2023-03-01T14:49:41;6.50;99.90
3202;DHT22;34843;48.744;8.958;2023-03-01T14:52:18;6.40;99.90
3202;DHT22;34843;48.744;8.958;2023-03-01T14:54:48;6.30;99.90
3202;DHT22;34843;48.744;8.958;2023-03-01T14:57:24;6.30;99.90
3202;DHT22;34843;48.744;8.958;2023-03-01T14:59:52;6.30;99.90
3202;DHT22;34843;48.744;8.958;2023-03-01T15:02:22;6.20;99.90
3202;DHT22;34843;48.744;8.958;2023-03-01T15:04:51;6.30;99.90
3202;DHT22;34843;48.744;8.958;2023-03-01T15:07:17;6.20;99.90
3202;DHT22;34843;48.744;8.958;2023-03-01T15:09:43;6.20;99.90
3202;DHT22;34843;48.744;8.958;2023-03-01T15:14:54;6.20;99.90
3202;DHT22;34843;48.744;8.958;2023-03-01T15:17:35;6.20;99.90
3202;DHT22;34843;48.744;8.958;2023-03-01T15:20:03;6.20;99.90
3202;DHT22;34843;48.744;8.958;2023-03-01T15:22:30;6.10;99.90
3202;DHT22;34843;48.744;8.958;2023-03-01T15:24:55;6.20;99.90
3202;DHT22;34843;48.744;8.958;2023-03-01T15:27:23;6.10;99.90
3202;DHT22;34843;48.744;8.958;2023-03-01T15:30:00;6.20;99.90
3202;DHT22;34843;48.744;8.958;2023-03-01T15:32:33;6.10;99.90
3202;DHT22;34843;48.744;8.958;2023-03-01T15:35:00;6.10;99.90
3202;DHT22;34843;48.744;8.958;2023-03-01T15:37:46;6.10;99.90
3202;DHT22;34843;48.744;8.958;2023-03-01T15:40:28;6.10;99.90
3202;DHT22;34843;48.744;8.958;2023-03-01T15:43:01;6.10;99.90
3202;DHT22;34843;48.744;8.958;2023-03-01T15:45:29;6.00;99.90
3202;DHT22;34843;48.744;8.958;2023-03-01T15:47:56;6.00;99.90
3202;DHT22;34843;48.744;8.958;2023-03-01T15:52:52;5.90;99.90
3202;DHT22;34843;48.744;8.958;2023-03-01T15:55:20;5.80;99.90
3202;DHT22;34843;48.744;8.958;2023-03-01T15:57:46;5.80;99.90
3202;DHT22;34843;48.744;8.958;2023-03-01T16:00:14;5.70;99.90
3202;DHT22;34843;48.744;8.958;2023-03-01T16:02:41;5.60;99.90
3202;DHT22;34843;48.744;8.958;2023-03-01T16:05:27;5.80;99.90
3202;DHT22;34843;48.744;8.958;2023-03-01T16:07:53;5.50;99.90
3202;DHT22;34843;48.744;8.958;2023-03-01T16:10:20;5.50;99.90
3202;DHT22;34843;48.744;8.958;2023-03-01T16:12:46;5.50;99.90
3202;DHT22;34843;48.744;8.958;2023-03-01T16:15:21;7.30;99.90
3202;DHT22;34843;48.744;8.958;2023-03-01T16:17:47;5.40;99.90
3202;DHT22;34843;48.744;8.958;2023-03-01T16:20:14;5.40;99.90
3202;DHT22;34843;48.744;8.958;2023-03-01T16:22:43;5.40;99.90
3202;DHT22;34843;48.744;8.958;2023-03-01T16:25:14;5.30;99.90
3202;DHT22;34843;48.744;8.958;2023-03-01T16:27:42;5.30;99.90
3202;DHT22;34843;48.744;8.958;2023-03-01T16:30:09;5.20;99.90
3202;DHT22;34843;48.744;8.958;2023-03-01T16:32:42;5.10;99.90
3202;DHT22;34843;48.744;8.958;2023-03-01T16:35:10;5.10;99.90
3202;DHT22;34843;48.744;8.958;2023-03-01T16:37:36;5.00;99.90
3202;DHT22;34843;48.744;8.958;2023-03-01T16:40:04;4.90;99.90
3202;DHT22;34843;48.744;8.958;2023-03-01T16:42:34;5.00;99.90
3202;DHT22;34843;48.744;8.958;2023-03-01T16:44:59;4.90;99.90
3202;DHT22;34843;48.744;8.958;2023-03-01T16:47:27;4.60;99.90
3202;DHT22;34843;48.744;8.958;2023-03-01T16:49:53;4.70;99.90
3202;DHT22;34843;48.744;8.958;2023-03-01T16:52:19;4.70;99.90
3202;DHT22;34843;48.744;8.958;2023-03-01T16:54:45;4.60;99.90
3202;DHT22;34843;48.744;8.958;2023-03-01T16:57:11;4.60;99.90
3202;DHT22;34843;48.744;8.958;2023-03-01T16:59:37;4.50;99.90
3202;DHT22;34843;48.744;8.958;2023-03-01T17:04:29;4.40;99.90
3202;DHT22;34843;48.744;8.958;2023-03-01T17:06:54;4.40;99.90
3202;DHT22;34843;48.744;8.958;2023-03-01T17:09:20;4.30;99.90
3202;DHT22;34843;48.744;8.958;2023-03-01T17:11:47;4.20;99.90
3202;DHT22;34843;48.744;8.958;2023-03-01T17:14:13;2.70;99.90
3202;DHT22;34843;48.744;8.958;2023-03-01T17:16:40;4.10;99.90
3202;DHT22;34843;48.744;8.958;2023-03-01T17:19:06;4.00;99.90
3202;DHT22;34843;48.744;8.958;2023-03-01T17:21:32;4.10;99.90
3202;DHT22;34843;48.744;8.958;2023-03-01T17:23:58;4.00;99.90
3202;DHT22;34843;48.744;8.958;2023-03-01T17:26:23;4.00;99.90
3202;DHT22;34843;48.744;8.958;2023-03-01T17:28:49;3.90;99.90
3202;DHT22;34843;48.744;8.958;2023-03-01T17:31:17;3.80;99.90
3202;DHT22;34843;48.744;8.958;2023-03-01T17:33:42;3.80;99.90
3202;DHT22;34843;48.744;8.958;2023-03-01T17:36:08;3.70;99.90
3202;DHT22;34843;48.744;8.958;2023-03-01T17:38:34;3.60;99.90
3202;DHT22;34843;48.744;8.958;2023-03-01T17:41:02;3.60;99.90
3202;DHT22;34843;48.744;8.958;2023-03-01T17:43:27;5.50;99.90